sensor_id;sensor_type;location;lat;lon;timestamp;P1;durP1;ratioP1;P2;durP2;ratioP2
47882;SDS011;37739;50.350;7.578;2022-11-15T00:00:51;6.00;;;5.50;;
47882;SDS011;37739;50.350;7.578;2022-11-15T00:03:18;7.90;;;5.60;;
47882;SDS011;37739;50.350;7.578;2022-11-15T00:05:49;6.07;;;5.57;;
47882;SDS011;37739;50.350;7.578;2022-11-15T00:08:16;6.20;;;5.60;;
47882;SDS011;37739;50.350;7.578;2022-11-15T00:10:58;6.73;;;6.13;;
47882;SDS011;37739;50.350;7.578;2022-11-15T00:13:25;6.80;;;6.20;;
47882;SDS011;37739;50.350;7.578;2022-11-15T00:15:54;5.50;;;5.03;;
47882;SDS011;37739;50.350;7.578;2022-11-15T00:18:22;5.57;;;5.07;;
47882;SDS011;37739;50.350;7.578;2022-11-15T00:20:49;7.23;;;5.73;;
47882;SDS011;37739;50.350;7.578;2022-11-15T00:23:14;8.00;;;6.67;;
47882;SDS011;37739;50.350;7.578;2022-11-15T00:25:40;6.23;;;5.63;;
47882;SDS011;37739;50.350;7.578;2022-11-15T00:28:05;6.47;;;5.90;;
47882;SDS011;37739;50.350;7.578;2022-11-15T00:30:30;5.87;;;5.37;;
47882;SDS011;37739;50.350;7.578;2022-11-15T00:32:56;5.50;;;5.10;;
47882;SDS011;37739;50.350;7.578;2022-11-15T00:35:21;6.13;;;5.60;;
47882;SDS011;37739;50.350;7.578;2022-11-15T00:37:47;7.30;;;5.97;;
47882;SDS011;37739;50.350;7.578;2022-11-15T00:40:14;5.47;;;4.97;;
47882;SDS011;37739;50.350;7.578;2022-11-15T00:42:40;5.80;;;5.30;;
47882;SDS011;37739;50.350;7.578;2022-11-15T00:45:06;6.90;;;6.30;;
47882;SDS011;37739;50.350;7.578;2022-11-15T00:47:31;6.27;;;5.67;;
47882;SDS011;37739;50.350;7.578;2022-11-15T00:49:57;4.60;;;4.20;;
47882;SDS011;37739;50.350;7.578;2022-11-15T00:52:22;5.40;;;4.90;;
47882;SDS011;37739;50.350;7.578;2022-11-15T00:54:48;6.10;;;5.50;;
47882;SDS011;37739;50.350;7.578;2022-11-15T00:57:13;5.70;;;5.20;;
47882;SDS011;37739;50.350;7.578;2022-11-15T00:59:41;6.13;;;5.43;;
47882;SDS011;37739;50.350;7.578;2022-11-15T01:02:08;4.97;;;4.60;;
47882;SDS011;37739;50.350;7.578;2022-11-15T01:04:36;6.10;;;5.60;;
47882;SDS011;37739;50.350;7.578;2022-11-15T01:07:04;7.10;;;5.60;;
47882;SDS011;37739;50.350;7.578;2022-11-15T01:09:29;5.83;;;5.33;;
47882;SDS011;37739;50.350;7.578;2022-11-15T01:11:54;5.70;;;5.10;;
47882;SDS011;37739;50.350;7.578;2022-11-15T01:14:20;9.50;;;5.10;;
47882;SDS011;37739;50.350;7.578;2022-11-15T01:16:47;6.97;;;6.30;;
47882;SDS011;37739;50.350;7.578;2022-11-15T01:19:15;5.40;;;4.90;;
47882;SDS011;37739;50.350;7.578;2022-11-15T01:21:45;5.97;;;4.67;;
47882;SDS011;37739;50.350;7.578;2022-11-15T01:24:11;5.00;;;4.60;;
47882;SDS011;37739;50.350;7.578;2022-11-15T01:26:37;7.27;;;6.67;;
47882;SDS011;37739;50.350;7.578;2022-11-15T01:29:03;6.30;;;5.70;;
47882;SDS011;37739;50.350;7.578;2022-11-15T01:31:31;7.83;;;6.03;;
47882;SDS011;37739;50.350;7.578;2022-11-15T01:33:59;6.43;;;5.90;;
47882;SDS011;37739;50.350;7.578;2022-11-15T01:36:27;8.57;;;7.80;;
47882;SDS011;37739;50.350;7.578;2022-11-15T01:38:58;8.07;;;7.47;;
47882;SDS011;37739;50.350;7.578;2022-11-15T01:41:27;7.50;;;6.87;;
47882;SDS011;37739;50.350;7.578;2022-11-15T01:44:31;8.40;;;7.70;;
47882;SDS011;37739;50.350;7.578;2022-11-15T01:46:55;9.03;;;8.00;;
47882;SDS011;37739;50.350;7.578;2022-11-15T01:49:26;7.70;;;7.03;;
47882;SDS011;37739;50.350;7.578;2022-11-15T01:51:57;8.40;;;7.70;;
47882;SDS011;37739;50.350;7.578;2022-11-15T01:54:26;7.80;;;7.10;;
47882;SDS011;37739;50.350;7.578;2022-11-15T01:56:56;7.30;;;6.70;;
47882;SDS011;37739;50.350;7.578;2022-11-15T01:59:26;8.33;;;7.53;;
47882;SDS011;37739;50.350;7.578;2022-11-15T02:01:52;7.70;;;7.00;;
47882;SDS011;37739;50.350;7.578;2022-11-15T02:06:53;7.33;;;6.63;;
47882;SDS011;37739;50.350;7.578;2022-11-15T02:09:18;7.17;;;6.53;;
47882;SDS011;37739;50.350;7.578;2022-11-15T02:11:46;8.03;;;7.10;;
47882;SDS011;37739;50.350;7.578;2022-11-15T02:14:13;7.30;;;6.70;;
47882;SDS011;37739;50.350;7.578;2022-11-15T02:19:58;6.47;;;5.87;;
47882;SDS011;37739;50.350;7.578;2022-11-15T02:38:30;7.90;;;7.20;;
47882;SDS011;37739;50.350;7.578;2022-11-15T02:41:26;6.87;;;6.30;;
47882;SDS011;37739;50.350;7.578;2022-11-15T02:44:01;6.50;;;5.93;;
47882;SDS011;37739;50.350;7.578;2022-11-15T02:46:35;7.70;;;6.90;;
47882;SDS011;37739;50.350;7.578;2022-11-15T02:49:20;6.57;;;5.97;;
47882;SDS011;37739;50.350;7.578;2022-11-15T02:51:47;7.37;;;6.60;;
47882;SDS011;37739;50.350;7.578;2022-11-15T02:54:17;7.17;;;6.33;;
47882;SDS011;37739;50.350;7.578;2022-11-15T02:56:50;9.63;;;7.80;;
47882;SDS011;37739;50.350;7.578;2022-11-15T03:04:59;7.70;;;6.10;;
47882;SDS011;37739;50.350;7.578;2022-11-15T03:07:35;7.00;;;6.30;;
47882;SDS011;37739;50.350;7.578;2022-11-15T03:13:04;7.50;;;6.70;;
47882;SDS011;37739;50.350;7.578;2022-11-15T03:15:41;5.93;;;5.30;;
47882;SDS011;37739;50.350;7.578;2022-11-15T03:18:34;5.20;;;4.73;;
47882;SDS011;37739;50.350;7.578;2022-11-15T03:21:09;6.13;;;5.53;;
47882;SDS011;37739;50.350;7.578;2022-11-15T03:23:40;6.40;;;5.80;;
47882;SDS011;37739;50.350;7.578;2022-11-15T03:26:09;6.57;;;5.70;;
47882;SDS011;37739;50.350;7.578;2022-11-15T03:29:24;5.40;;;4.90;;
47882;SDS011;37739;50.350;7.578;2022-11-15T03:31:36;5.57;;;5.07;;
47882;SDS011;37739;50.350;7.578;2022-11-15T03:34:34;5.50;;;5.00;;
47882;SDS011;37739;50.350;7.578;2022-11-15T03:37:20;5.67;;;5.17;;
47882;SDS011;37739;50.350;7.578;2022-11-15T03:39:49;5.03;;;4.63;;
47882;SDS011;37739;50.350;7.578;2022-11-15T03:42:27;4.10;;;3.80;;
47882;SDS011;37739;50.350;7.578;2022-11-15T03:44:58;4.27;;;3.87;;
47882;SDS011;37739;50.350;7.578;2022-11-15T03:47:27;4.60;;;4.20;;
47882;SDS011;37739;50.350;7.578;2022-11-15T03:50:07;4.37;;;3.97;;
47882;SDS011;37739;50.350;7.578;2022-11-15T03:52:40;4.37;;;3.97;;
47882;SDS011;37739;50.350;7.578;2022-11-15T03:55:10;4.57;;;4.17;;
47882;SDS011;37739;50.350;7.578;2022-11-15T03:57:37;5.03;;;4.13;;
47882;SDS011;37739;50.350;7.578;2022-11-15T04:00:03;3.97;;;3.67;;
47882;SDS011;37739;50.350;7.578;2022-11-15T04:02:29;3.50;;;3.20;;
47882;SDS011;37739;50.350;7.578;2022-11-15T04:04:57;5.00;;;4.50;;
47882;SDS011;37739;50.350;7.578;2022-11-15T04:07:22;4.60;;;4.20;;
47882;SDS011;37739;50.350;7.578;2022-11-15T04:09:48;4.87;;;4.47;;
47882;SDS011;37739;50.350;7.578;2022-11-15T04:12:38;5.77;;;4.77;;
47882;SDS011;37739;50.350;7.578;2022-11-15T04:15:08;5.40;;;4.90;;
47882;SDS011;37739;50.350;7.578;2022-11-15T04:17:36;4.90;;;4.47;;
47882;SDS011;37739;50.350;7.578;2022-11-15T04:20:05;4.93;;;4.00;;
47882;SDS011;37739;50.350;7.578;2022-11-15T04:22:54;4.37;;;4.00;;
47882;SDS011;37739;50.350;7.578;2022-11-15T04:25:39;5.53;;;5.03;;
47882;SDS011;37739;50.350;7.578;2022-11-15T04:28:06;4.40;;;4.00;;
47882;SDS011;37739;50.350;7.578;2022-11-15T04:30:32;5.60;;;4.10;;
47882;SDS011;37739;50.350;7.578;2022-11-15T04:32:57;5.00;;;4.10;;
47882;SDS011;37739;50.350;7.578;2022-11-15T04:35:25;4.20;;;3.80;;
47882;SDS011;37739;50.350;7.578;2022-11-15T04:37:53;4.17;;;3.77;;
47882;SDS011;37739;50.350;7.578;2022-11-15T04:40:21;4.27;;;3.97;;
47882;SDS011;37739;50.350;7.578;2022-11-15T04:42:47;4.67;;;3.93;;
47882;SDS011;37739;50.350;7.578;2022-11-15T04:45:12;3.90;;;3.60;;
47882;SDS011;37739;50.350;7.578;2022-11-15T04:47:40;3.80;;;3.50;;
47882;SDS011;37739;50.350;7.578;2022-11-15T04:50:11;3.63;;;3.33;;
47882;SDS011;37739;50.350;7.578;2022-11-15T04:52:41;4.10;;;3.70;;
47882;SDS011;37739;50.350;7.578;2022-11-15T04:55:08;3.57;;;3.27;;
47882;SDS011;37739;50.350;7.578;2022-11-15T04:57:40;3.27;;;2.97;;
47882;SDS011;37739;50.350;7.578;2022-11-15T05:00:06;3.43;;;3.00;;
47882;SDS011;37739;50.350;7.578;2022-11-15T05:02:35;3.43;;;3.00;;
47882;SDS011;37739;50.350;7.578;2022-11-15T05:05:18;2.87;;;2.60;;
47882;SDS011;37739;50.350;7.578;2022-11-15T05:07:44;3.60;;;2.97;;
47882;SDS011;37739;50.350;7.578;2022-11-15T05:10:09;2.63;;;2.43;;
47882;SDS011;37739;50.350;7.578;2022-11-15T05:12:37;3.90;;;3.17;;
47882;SDS011;37739;50.350;7.578;2022-11-15T05:15:03;3.20;;;2.70;;
47882;SDS011;37739;50.350;7.578;2022-11-15T05:17:28;3.10;;;2.47;;
47882;SDS011;37739;50.350;7.578;2022-11-15T05:19:56;3.57;;;3.27;;
47882;SDS011;37739;50.350;7.578;2022-11-15T05:22:21;3.70;;;3.33;;
47882;SDS011;37739;50.350;7.578;2022-11-15T05:24:49;3.70;;;3.40;;
47882;SDS011;37739;50.350;7.578;2022-11-15T05:27:15;3.00;;;2.80;;
47882;SDS011;37739;50.350;7.578;2022-11-15T05:29:40;3.40;;;3.10;;
47882;SDS011;37739;50.350;7.578;2022-11-15T05:32:08;3.43;;;3.13;;
47882;SDS011;37739;50.350;7.578;2022-11-15T05:34:37;3.53;;;3.23;;
47882;SDS011;37739;50.350;7.578;2022-11-15T05:37:03;3.83;;;3.53;;
47882;SDS011;37739;50.350;7.578;2022-11-15T05:39:29;3.20;;;3.00;;
47882;SDS011;37739;50.350;7.578;2022-11-15T05:41:56;4.03;;;3.70;;
47882;SDS011;37739;50.350;7.578;2022-11-15T05:44:29;4.17;;;3.67;;
47882;SDS011;37739;50.350;7.578;2022-11-15T05:46:56;3.70;;;3.20;;
47882;SDS011;37739;50.350;7.578;2022-11-15T05:49:25;3.93;;;3.27;;
47882;SDS011;37739;50.350;7.578;2022-11-15T05:51:57;4.47;;;3.77;;
47882;SDS011;37739;50.350;7.578;2022-11-15T05:54:23;3.40;;;3.10;;
47882;SDS011;37739;50.350;7.578;2022-11-15T05:56:50;3.20;;;2.90;;
47882;SDS011;37739;50.350;7.578;2022-11-15T05:59:18;3.60;;;3.30;;
47882;SDS011;37739;50.350;7.578;2022-11-15T06:01:48;4.13;;;3.20;;
47882;SDS011;37739;50.350;7.578;2022-11-15T06:04:16;2.77;;;2.57;;
47882;SDS011;37739;50.350;7.578;2022-11-15T06:06:41;3.20;;;2.77;;
47882;SDS011;37739;50.350;7.578;2022-11-15T06:09:11;3.13;;;2.90;;
47882;SDS011;37739;50.350;7.578;2022-11-15T06:11:36;3.10;;;2.77;;
47882;SDS011;37739;50.350;7.578;2022-11-15T06:14:03;3.40;;;2.87;;
47882;SDS011;37739;50.350;7.578;2022-11-15T06:16:29;3.40;;;3.10;;
47882;SDS011;37739;50.350;7.578;2022-11-15T06:18:54;3.50;;;3.00;;
47882;SDS011;37739;50.350;7.578;2022-11-15T06:21:19;3.90;;;3.50;;
47882;SDS011;37739;50.350;7.578;2022-11-15T06:23:49;2.97;;;2.77;;
47882;SDS011;37739;50.350;7.578;2022-11-15T06:26:15;3.53;;;3.23;;
47882;SDS011;37739;50.350;7.578;2022-11-15T06:28:40;3.43;;;3.10;;
47882;SDS011;37739;50.350;7.578;2022-11-15T06:31:07;3.50;;;3.20;;
47882;SDS011;37739;50.350;7.578;2022-11-15T06:33:36;3.80;;;3.50;;
47882;SDS011;37739;50.350;7.578;2022-11-15T06:36:05;3.77;;;3.47;;
47882;SDS011;37739;50.350;7.578;2022-11-15T06:38:35;3.47;;;3.17;;
47882;SDS011;37739;50.350;7.578;2022-11-15T06:41:04;3.47;;;3.17;;
47882;SDS011;37739;50.350;7.578;2022-11-15T06:43:31;4.80;;;3.43;;
47882;SDS011;37739;50.350;7.578;2022-11-15T06:46:04;4.00;;;3.70;;
47882;SDS011;37739;50.350;7.578;2022-11-15T06:48:32;4.00;;;3.07;;
47882;SDS011;37739;50.350;7.578;2022-11-15T06:51:02;3.77;;;3.47;;
47882;SDS011;37739;50.350;7.578;2022-11-15T06:53:29;4.80;;;4.40;;
47882;SDS011;37739;50.350;7.578;2022-11-15T06:56:00;3.00;;;2.70;;
47882;SDS011;37739;50.350;7.578;2022-11-15T06:58:29;4.33;;;3.40;;
47882;SDS011;37739;50.350;7.578;2022-11-15T07:00:59;4.63;;;4.10;;
47882;SDS011;37739;50.350;7.578;2022-11-15T07:03:25;3.90;;;3.50;;
47882;SDS011;37739;50.350;7.578;2022-11-15T07:05:53;3.63;;;3.27;;
47882;SDS011;37739;50.350;7.578;2022-11-15T07:08:26;3.73;;;3.43;;
47882;SDS011;37739;50.350;7.578;2022-11-15T07:10:55;3.33;;;3.03;;
47882;SDS011;37739;50.350;7.578;2022-11-15T07:13:27;4.07;;;3.67;;
47882;SDS011;37739;50.350;7.578;2022-11-15T07:15:53;4.60;;;3.83;;
47882;SDS011;37739;50.350;7.578;2022-11-15T07:18:19;3.47;;;2.83;;
47882;SDS011;37739;50.350;7.578;2022-11-15T07:20:47;4.33;;;2.93;;
47882;SDS011;37739;50.350;7.578;2022-11-15T07:23:15;3.47;;;3.17;;
47882;SDS011;37739;50.350;7.578;2022-11-15T07:25:42;3.57;;;3.27;;
47882;SDS011;37739;50.350;7.578;2022-11-15T07:28:08;3.93;;;3.63;;
47882;SDS011;37739;50.350;7.578;2022-11-15T07:30:35;3.37;;;3.07;;
47882;SDS011;37739;50.350;7.578;2022-11-15T07:33:01;3.97;;;3.40;;
47882;SDS011;37739;50.350;7.578;2022-11-15T07:35:31;3.80;;;3.43;;
47882;SDS011;37739;50.350;7.578;2022-11-15T07:38:01;3.30;;;3.00;;
47882;SDS011;37739;50.350;7.578;2022-11-15T07:40:28;4.90;;;3.17;;
47882;SDS011;37739;50.350;7.578;2022-11-15T07:43:12;3.77;;;3.47;;
47882;SDS011;37739;50.350;7.578;2022-11-15T07:45:44;4.50;;;3.53;;
47882;SDS011;37739;50.350;7.578;2022-11-15T07:48:10;3.00;;;2.73;;
47882;SDS011;37739;50.350;7.578;2022-11-15T07:50:36;3.17;;;2.97;;
47882;SDS011;37739;50.350;7.578;2022-11-15T07:53:02;3.37;;;3.17;;
47882;SDS011;37739;50.350;7.578;2022-11-15T07:55:27;2.97;;;2.77;;
47882;SDS011;37739;50.350;7.578;2022-11-15T07:58:01;8.87;;;3.67;;
47882;SDS011;37739;50.350;7.578;2022-11-15T08:00:31;4.30;;;3.90;;
47882;SDS011;37739;50.350;7.578;2022-11-15T08:03:03;2.83;;;2.63;;
47882;SDS011;37739;50.350;7.578;2022-11-15T08:05:30;2.83;;;2.60;;
47882;SDS011;37739;50.350;7.578;2022-11-15T08:07:55;3.23;;;3.03;;
47882;SDS011;37739;50.350;7.578;2022-11-15T08:10:21;3.87;;;3.23;;
47882;SDS011;37739;50.350;7.578;2022-11-15T08:12:46;3.43;;;3.13;;
47882;SDS011;37739;50.350;7.578;2022-11-15T08:15:21;3.20;;;2.90;;
47882;SDS011;37739;50.350;7.578;2022-11-15T08:17:46;3.00;;;2.80;;
47882;SDS011;37739;50.350;7.578;2022-11-15T08:20:14;3.50;;;3.20;;
47882;SDS011;37739;50.350;7.578;2022-11-15T08:22:41;3.10;;;2.80;;
47882;SDS011;37739;50.350;7.578;2022-11-15T08:25:06;3.87;;;3.47;;
47882;SDS011;37739;50.350;7.578;2022-11-15T08:27:32;4.00;;;3.60;;
47882;SDS011;37739;50.350;7.578;2022-11-15T08:29:59;3.60;;;3.23;;
47882;SDS011;37739;50.350;7.578;2022-11-15T08:32:27;3.60;;;3.30;;
47882;SDS011;37739;50.350;7.578;2022-11-15T08:34:53;3.07;;;2.77;;
47882;SDS011;37739;50.350;7.578;2022-11-15T08:37:18;3.10;;;2.90;;
47882;SDS011;37739;50.350;7.578;2022-11-15T08:39:43;4.27;;;3.97;;
47882;SDS011;37739;50.350;7.578;2022-11-15T08:42:13;4.13;;;3.70;;
47882;SDS011;37739;50.350;7.578;2022-11-15T08:44:41;3.60;;;3.23;;
47882;SDS011;37739;50.350;7.578;2022-11-15T08:47:10;4.07;;;3.77;;
47882;SDS011;37739;50.350;7.578;2022-11-15T08:49:36;4.37;;;3.97;;
47882;SDS011;37739;50.350;7.578;2022-11-15T08:52:01;3.90;;;3.50;;
47882;SDS011;37739;50.350;7.578;2022-11-15T08:54:29;3.60;;;3.30;;
47882;SDS011;37739;50.350;7.578;2022-11-15T08:56:54;3.97;;;3.67;;
47882;SDS011;37739;50.350;7.578;2022-11-15T08:59:20;4.70;;;3.50;;
47882;SDS011;37739;50.350;7.578;2022-11-15T09:01:45;4.00;;;3.53;;
47882;SDS011;37739;50.350;7.578;2022-11-15T09:04:12;4.03;;;3.63;;
47882;SDS011;37739;50.350;7.578;2022-11-15T09:06:38;4.50;;;3.53;;
47882;SDS011;37739;50.350;7.578;2022-11-15T09:09:03;3.93;;;3.50;;
47882;SDS011;37739;50.350;7.578;2022-11-15T09:11:33;4.37;;;3.43;;
47882;SDS011;37739;50.350;7.578;2022-11-15T09:14:01;3.73;;;3.40;;
47882;SDS011;37739;50.350;7.578;2022-11-15T09:16:27;4.10;;;3.70;;
47882;SDS011;37739;50.350;7.578;2022-11-15T09:18:55;3.70;;;3.40;;
47882;SDS011;37739;50.350;7.578;2022-11-15T09:21:20;3.83;;;3.53;;
47882;SDS011;37739;50.350;7.578;2022-11-15T09:23:45;4.13;;;3.67;;
47882;SDS011;37739;50.350;7.578;2022-11-15T09:26:11;4.20;;;3.37;;
47882;SDS011;37739;50.350;7.578;2022-11-15T09:28:38;3.97;;;3.67;;
47882;SDS011;37739;50.350;7.578;2022-11-15T09:31:06;4.47;;;4.07;;
47882;SDS011;37739;50.350;7.578;2022-11-15T09:33:32;3.83;;;3.53;;
47882;SDS011;37739;50.350;7.578;2022-11-15T09:36:02;4.50;;;4.10;;
47882;SDS011;37739;50.350;7.578;2022-11-15T09:38:29;5.37;;;4.57;;
47882;SDS011;37739;50.350;7.578;2022-11-15T09:41:19;3.90;;;3.60;;
47882;SDS011;37739;50.350;7.578;2022-11-15T09:49:29;3.00;;;2.80;;
47882;SDS011;37739;50.350;7.578;2022-11-15T09:51:56;3.17;;;2.87;;
47882;SDS011;37739;50.350;7.578;2022-11-15T09:54:41;3.00;;;2.80;;
47882;SDS011;37739;50.350;7.578;2022-11-15T09:57:15;2.93;;;2.63;;
47882;SDS011;37739;50.350;7.578;2022-11-15T10:04:56;4.60;;;2.93;;
47882;SDS011;37739;50.350;7.578;2022-11-15T10:07:27;4.63;;;2.67;;
47882;SDS011;37739;50.350;7.578;2022-11-15T10:10:14;3.10;;;2.77;;
47882;SDS011;37739;50.350;7.578;2022-11-15T10:12:50;4.00;;;3.60;;
47882;SDS011;37739;50.350;7.578;2022-11-15T10:15:17;3.80;;;2.90;;
47882;SDS011;37739;50.350;7.578;2022-11-15T10:20:50;4.27;;;3.63;;
47882;SDS011;37739;50.350;7.578;2022-11-15T10:23:24;3.20;;;2.90;;
47882;SDS011;37739;50.350;7.578;2022-11-15T10:25:57;3.37;;;3.03;;
47882;SDS011;37739;50.350;7.578;2022-11-15T10:28:30;4.23;;;2.80;;
47882;SDS011;37739;50.350;7.578;2022-11-15T10:30:58;2.63;;;2.43;;
47882;SDS011;37739;50.350;7.578;2022-11-15T10:33:38;3.87;;;2.63;;
47882;SDS011;37739;50.350;7.578;2022-11-15T10:38:55;4.60;;;2.90;;
47882;SDS011;37739;50.350;7.578;2022-11-15T10:41:28;2.27;;;2.07;;
47882;SDS011;37739;50.350;7.578;2022-11-15T10:44:17;2.90;;;2.70;;
47882;SDS011;37739;50.350;7.578;2022-11-15T10:49:22;2.60;;;2.40;;
47882;SDS011;37739;50.350;7.578;2022-11-15T10:51:59;3.00;;;2.17;;
47882;SDS011;37739;50.350;7.578;2022-11-15T10:57:08;3.93;;;2.10;;
47882;SDS011;37739;50.350;7.578;2022-11-15T10:59:46;2.43;;;2.23;;
47882;SDS011;37739;50.350;7.578;2022-11-15T11:04:57;2.40;;;2.00;;
47882;SDS011;37739;50.350;7.578;2022-11-15T11:07:25;3.20;;;2.00;;
47882;SDS011;37739;50.350;7.578;2022-11-15T11:09:59;3.40;;;2.10;;
47882;SDS011;37739;50.350;7.578;2022-11-15T11:12:34;2.43;;;2.00;;
47882;SDS011;37739;50.350;7.578;2022-11-15T11:15:05;1.97;;;1.77;;
47882;SDS011;37739;50.350;7.578;2022-11-15T11:20:21;2.60;;;2.40;;
47882;SDS011;37739;50.350;7.578;2022-11-15T11:23:18;2.27;;;1.70;;
47882;SDS011;37739;50.350;7.578;2022-11-15T11:26:01;3.33;;;1.30;;
47882;SDS011;37739;50.350;7.578;2022-11-15T11:45:15;2.17;;;1.97;;
47882;SDS011;37739;50.350;7.578;2022-11-15T11:47:51;1.63;;;1.50;;
47882;SDS011;37739;50.350;7.578;2022-11-15T11:50:40;1.93;;;1.73;;
47882;SDS011;37739;50.350;7.578;2022-11-15T11:55:58;4.03;;;2.20;;
47882;SDS011;37739;50.350;7.578;2022-11-15T11:58:39;2.00;;;1.63;;
47882;SDS011;37739;50.350;7.578;2022-11-15T12:01:22;1.70;;;1.60;;
47882;SDS011;37739;50.350;7.578;2022-11-15T12:04:14;1.93;;;1.60;;
47882;SDS011;37739;50.350;7.578;2022-11-15T12:06:48;2.37;;;1.90;;
47882;SDS011;37739;50.350;7.578;2022-11-15T12:09:33;1.90;;;1.67;;
47882;SDS011;37739;50.350;7.578;2022-11-15T12:14:50;1.90;;;1.57;;
47882;SDS011;37739;50.350;7.578;2022-11-15T12:17:20;2.30;;;2.10;;
47882;SDS011;37739;50.350;7.578;2022-11-15T12:19:52;1.50;;;1.40;;
47882;SDS011;37739;50.350;7.578;2022-11-15T12:22:23;2.13;;;1.90;;
47882;SDS011;37739;50.350;7.578;2022-11-15T12:25:08;1.50;;;1.40;;
47882;SDS011;37739;50.350;7.578;2022-11-15T12:27:45;3.67;;;1.57;;
47882;SDS011;37739;50.350;7.578;2022-11-15T12:30:18;1.50;;;1.40;;
47882;SDS011;37739;50.350;7.578;2022-11-15T12:32:52;1.40;;;1.30;;
47882;SDS011;37739;50.350;7.578;2022-11-15T12:37:59;1.80;;;1.67;;
47882;SDS011;37739;50.350;7.578;2022-11-15T12:40:36;2.40;;;1.67;;
47882;SDS011;37739;50.350;7.578;2022-11-15T12:46:19;2.73;;;1.77;;
47882;SDS011;37739;50.350;7.578;2022-11-15T12:48:48;2.10;;;1.87;;
47882;SDS011;37739;50.350;7.578;2022-11-15T12:51:16;2.50;;;1.87;;
47882;SDS011;37739;50.350;7.578;2022-11-15T12:53:44;2.07;;;1.87;;
47882;SDS011;37739;50.350;7.578;2022-11-15T13:04:14;1.50;;;1.40;;
47882;SDS011;37739;50.350;7.578;2022-11-15T13:06:44;3.40;;;1.90;;
47882;SDS011;37739;50.350;7.578;2022-11-15T13:12:03;2.03;;;1.50;;
47882;SDS011;37739;50.350;7.578;2022-11-15T13:14:42;2.03;;;1.70;;
47882;SDS011;37739;50.350;7.578;2022-11-15T13:19:45;2.30;;;1.40;;
47882;SDS011;37739;50.350;7.578;2022-11-15T13:22:11;1.90;;;1.70;;
47882;SDS011;37739;50.350;7.578;2022-11-15T13:24:56;2.10;;;1.50;;
47882;SDS011;37739;50.350;7.578;2022-11-15T13:27:27;2.27;;;1.67;;
47882;SDS011;37739;50.350;7.578;2022-11-15T13:29:53;3.03;;;1.93;;
47882;SDS011;37739;50.350;7.578;2022-11-15T13:32:19;2.00;;;1.67;;
47882;SDS011;37739;50.350;7.578;2022-11-15T13:34:45;1.90;;;1.30;;
47882;SDS011;37739;50.350;7.578;2022-11-15T13:39:48;1.77;;;1.57;;
47882;SDS011;37739;50.350;7.578;2022-11-15T13:42:15;3.50;;;1.43;;
47882;SDS011;37739;50.350;7.578;2022-11-15T13:44:54;2.00;;;1.50;;
47882;SDS011;37739;50.350;7.578;2022-11-15T13:47:25;1.70;;;1.60;;
47882;SDS011;37739;50.350;7.578;2022-11-15T13:49:56;2.53;;;1.50;;
47882;SDS011;37739;50.350;7.578;2022-11-15T13:52:27;1.90;;;1.50;;
47882;SDS011;37739;50.350;7.578;2022-11-15T13:55:08;1.43;;;1.30;;
47882;SDS011;37739;50.350;7.578;2022-11-15T13:57:59;1.90;;;1.53;;
47882;SDS011;37739;50.350;7.578;2022-11-15T14:05:42;3.10;;;1.70;;
47882;SDS011;37739;50.350;7.578;2022-11-15T14:10:37;1.73;;;1.50;;
47882;SDS011;37739;50.350;7.578;2022-11-15T14:13:10;2.23;;;1.83;;
47882;SDS011;37739;50.350;7.578;2022-11-15T14:15:53;1.60;;;1.47;;
47882;SDS011;37739;50.350;7.578;2022-11-15T14:21:25;1.60;;;1.37;;
47882;SDS011;37739;50.350;7.578;2022-11-15T14:23:53;2.40;;;1.73;;
47882;SDS011;37739;50.350;7.578;2022-11-15T14:26:39;2.73;;;1.90;;
47882;SDS011;37739;50.350;7.578;2022-11-15T14:32:05;1.63;;;1.33;;
47882;SDS011;37739;50.350;7.578;2022-11-15T14:34:41;2.27;;;1.80;;
47882;SDS011;37739;50.350;7.578;2022-11-15T14:37:28;2.07;;;1.73;;
47882;SDS011;37739;50.350;7.578;2022-11-15T14:39:53;2.93;;;2.73;;
47882;SDS011;37739;50.350;7.578;2022-11-15T14:42:20;2.27;;;2.07;;
47882;SDS011;37739;50.350;7.578;2022-11-15T14:44:49;2.00;;;1.90;;
47882;SDS011;37739;50.350;7.578;2022-11-15T14:47:15;1.57;;;1.47;;
47882;SDS011;37739;50.350;7.578;2022-11-15T14:49:40;1.77;;;1.67;;
47882;SDS011;37739;50.350;7.578;2022-11-15T14:54:53;2.60;;;1.70;;
47882;SDS011;37739;50.350;7.578;2022-11-15T14:57:19;2.00;;;1.80;;
47882;SDS011;37739;50.350;7.578;2022-11-15T14:59:47;2.80;;;2.40;;
47882;SDS011;37739;50.350;7.578;2022-11-15T15:02:22;2.13;;;2.03;;
47882;SDS011;37739;50.350;7.578;2022-11-15T15:04:51;2.13;;;1.93;;
47882;SDS011;37739;50.350;7.578;2022-11-15T15:07:28;3.70;;;2.43;;
47882;SDS011;37739;50.350;7.578;2022-11-15T15:09:53;2.00;;;1.80;;
47882;SDS011;37739;50.350;7.578;2022-11-15T15:12:20;2.47;;;2.27;;
47882;SDS011;37739;50.350;7.578;2022-11-15T15:14:47;3.20;;;2.90;;
47882;SDS011;37739;50.350;7.578;2022-11-15T15:17:14;2.20;;;2.00;;
47882;SDS011;37739;50.350;7.578;2022-11-15T15:19:40;2.20;;;2.00;;
47882;SDS011;37739;50.350;7.578;2022-11-15T15:22:14;2.20;;;2.00;;
47882;SDS011;37739;50.350;7.578;2022-11-15T15:24:44;2.40;;;2.20;;
47882;SDS011;37739;50.350;7.578;2022-11-15T15:27:10;2.03;;;1.80;;
47882;SDS011;37739;50.350;7.578;2022-11-15T15:29:36;2.20;;;1.93;;
47882;SDS011;37739;50.350;7.578;2022-11-15T15:32:05;2.27;;;2.07;;
47882;SDS011;37739;50.350;7.578;2022-11-15T15:34:30;2.23;;;2.00;;
47882;SDS011;37739;50.350;7.578;2022-11-15T15:37:17;2.20;;;2.00;;
47882;SDS011;37739;50.350;7.578;2022-11-15T15:39:51;3.30;;;1.90;;
47882;SDS011;37739;50.350;7.578;2022-11-15T15:42:18;2.90;;;2.40;;
47882;SDS011;37739;50.350;7.578;2022-11-15T15:44:47;2.43;;;1.80;;
47882;SDS011;37739;50.350;7.578;2022-11-15T15:47:17;2.63;;;1.80;;
47882;SDS011;37739;50.350;7.578;2022-11-15T15:49:47;3.90;;;1.93;;
47882;SDS011;37739;50.350;7.578;2022-11-15T15:52:17;2.20;;;2.00;;
47882;SDS011;37739;50.350;7.578;2022-11-15T15:54:44;2.37;;;1.90;;
47882;SDS011;37739;50.350;7.578;2022-11-15T15:57:12;1.87;;;1.73;;
47882;SDS011;37739;50.350;7.578;2022-11-15T15:59:40;2.10;;;1.77;;
47882;SDS011;37739;50.350;7.578;2022-11-15T16:02:08;2.50;;;2.13;;
47882;SDS011;37739;50.350;7.578;2022-11-15T16:04:37;2.40;;;2.20;;
47882;SDS011;37739;50.350;7.578;2022-11-15T16:07:05;3.70;;;2.10;;
47882;SDS011;37739;50.350;7.578;2022-11-15T16:09:37;2.20;;;1.90;;
47882;SDS011;37739;50.350;7.578;2022-11-15T16:12:20;3.03;;;2.50;;
47882;SDS011;37739;50.350;7.578;2022-11-15T16:14:50;2.17;;;1.97;;
47882;SDS011;37739;50.350;7.578;2022-11-15T16:17:21;2.33;;;1.87;;
47882;SDS011;37739;50.350;7.578;2022-11-15T16:19:51;2.10;;;1.90;;
47882;SDS011;37739;50.350;7.578;2022-11-15T16:22:17;2.33;;;2.10;;
47882;SDS011;37739;50.350;7.578;2022-11-15T16:24:42;4.83;;;2.60;;
47882;SDS011;37739;50.350;7.578;2022-11-15T16:27:18;2.40;;;2.20;;
47882;SDS011;37739;50.350;7.578;2022-11-15T16:29:47;3.83;;;2.63;;
47882;SDS011;37739;50.350;7.578;2022-11-15T16:32:13;3.27;;;2.27;;
47882;SDS011;37739;50.350;7.578;2022-11-15T16:34:42;3.07;;;2.77;;
47882;SDS011;37739;50.350;7.578;2022-11-15T16:37:20;4.20;;;3.17;;
47882;SDS011;37739;50.350;7.578;2022-11-15T16:39:47;3.17;;;2.87;;
47882;SDS011;37739;50.350;7.578;2022-11-15T16:42:15;4.77;;;3.30;;
47882;SDS011;37739;50.350;7.578;2022-11-15T16:44:42;2.97;;;2.77;;
47882;SDS011;37739;50.350;7.578;2022-11-15T16:47:15;3.67;;;3.37;;
47882;SDS011;37739;50.350;7.578;2022-11-15T16:49:46;4.40;;;4.00;;
47882;SDS011;37739;50.350;7.578;2022-11-15T16:52:12;4.00;;;3.60;;
47882;SDS011;37739;50.350;7.578;2022-11-15T16:54:40;3.43;;;3.13;;
47882;SDS011;37739;50.350;7.578;2022-11-15T16:57:06;3.73;;;3.33;;
47882;SDS011;37739;50.350;7.578;2022-11-15T16:59:34;3.63;;;3.33;;
47882;SDS011;37739;50.350;7.578;2022-11-15T17:01:59;4.50;;;4.00;;
47882;SDS011;37739;50.350;7.578;2022-11-15T17:04:26;3.30;;;3.00;;